CheckWX is a tool to help pilots better visualize weather data.  It is not intended as a substitute for an official pre-flight weather briefing.

00:25:17 UTC

3S8 METAR
Grants Pass Airport
Grants Pass, Oregon, USA
Current

10 mins ago

K3S8 210015Z AUTO 36007KT 320V030 10SM OVC040 13/05 A3008 RMK AO2
Observed
Apr-21 @ 00:15 UTC
Wind
  • 360° at 7 KTS
Visibility
10 SM
Flight Rules
VFR
Cloud Levels
  • Overcast at 4,000' AGL
Temperature
13°C / 55°F
Dewpoint
C / 41°F
Humidity
59%
Altimeter
30.08" Hg
Pressure
1018.62 hPa
Previous

30 mins ago

K3S8 202355Z AUTO 35008G13KT 320V020 10SM OVC038 13/05 A3008 RMK AO2
Observed
Apr-20 @ 23:55 UTC
Wind
  • 350° at 8 KTS
  • Gusting to 13 KTS
Visibility
10 SM
Flight Rules
VFR
Cloud Levels
  • Overcast at 3,800' AGL
Temperature
13°C / 55°F
Dewpoint
C / 41°F
Humidity
59%
Altimeter
30.08" Hg
Pressure
1018.62 hPa
Previous

50 mins ago

K3S8 202335Z AUTO 34009KT 10SM OVC036 13/05 A3008 RMK AO2
Observed
Apr-20 @ 23:35 UTC
Wind
  • 340° at 9 KTS
Visibility
10 SM
Flight Rules
VFR
Cloud Levels
  • Overcast at 3,600' AGL
Temperature
13°C / 55°F
Dewpoint
C / 41°F
Humidity
59%
Altimeter
30.08" Hg
Pressure
1018.62 hPa